sensor_id;sensor_type;location;lat;lon;timestamp;pressure;altitude;pressure_sealevel;temperature;humidity
47154;BME280;32907;41.412;2.164;2022-10-23T00:01:42;100586.84;;;26.21;47.02
47154;BME280;32907;41.412;2.164;2022-10-23T00:04:15;100576.66;;;26.22;46.96
47154;BME280;32907;41.412;2.164;2022-10-23T00:06:44;100554.97;;;26.00;46.95
47154;BME280;32907;41.412;2.164;2022-10-23T00:09:15;100605.75;;;26.23;47.54
47154;BME280;32907;41.412;2.164;2022-10-23T00:11:45;100594.28;;;26.21;47.15
47154;BME280;32907;41.412;2.164;2022-10-23T00:14:16;100584.09;;;26.21;47.53
47154;BME280;32907;41.412;2.164;2022-10-23T00:16:45;100586.03;;;26.21;47.61
47154;BME280;32907;41.412;2.164;2022-10-23T00:19:12;100575.25;;;26.16;47.85
47154;BME280;32907;41.412;2.164;2022-10-23T00:21:40;100584.88;;;26.22;47.60
47154;BME280;32907;41.412;2.164;2022-10-23T00:24:08;100584.41;;;26.20;47.79
47154;BME280;32907;41.412;2.164;2022-10-23T00:26:37;100573.13;;;26.13;48.14
47154;BME280;32907;41.412;2.164;2022-10-23T00:29:07;100534.94;;;25.90;48.21
47154;BME280;32907;41.412;2.164;2022-10-23T00:31:36;100516.25;;;25.84;48.17
47154;BME280;32907;41.412;2.164;2022-10-23T00:34:04;100533.66;;;25.88;48.82
47154;BME280;32907;41.412;2.164;2022-10-23T00:36:37;100556.31;;;26.14;48.83
47154;BME280;32907;41.412;2.164;2022-10-23T00:39:06;100539.56;;;26.07;49.14
47154;BME280;32907;41.412;2.164;2022-10-23T00:41:34;100515.59;;;25.87;49.09
47154;BME280;32907;41.412;2.164;2022-10-23T00:45:07;100552.75;;;26.14;49.60
47154;BME280;32907;41.412;2.164;2022-10-23T00:46:58;100507.38;;;25.78;49.15
47154;BME280;32907;41.412;2.164;2022-10-23T00:49:27;100532.78;;;26.05;50.00
47154;BME280;32907;41.412;2.164;2022-10-23T00:51:58;100526.00;;;26.02;49.98
47154;BME280;32907;41.412;2.164;2022-10-23T00:54:32;100514.72;;;25.95;49.64
47154;BME280;32907;41.412;2.164;2022-10-23T00:57:02;100537.81;;;26.03;50.11
47154;BME280;32907;41.412;2.164;2022-10-23T00:59:31;100462.25;;;25.50;49.91
47154;BME280;32907;41.412;2.164;2022-10-23T01:01:59;100513.56;;;25.75;49.85
47154;BME280;32907;41.412;2.164;2022-10-23T01:04:27;100558.00;;;26.07;49.87
47154;BME280;32907;41.412;2.164;2022-10-23T01:15:18;100489.81;;;25.62;49.75
47154;BME280;32907;41.412;2.164;2022-10-23T01:17:58;100546.72;;;26.00;49.71
47154;BME280;32907;41.412;2.164;2022-10-23T01:23:21;100555.72;;;26.09;49.51
47154;BME280;32907;41.412;2.164;2022-10-23T01:26:37;100574.94;;;26.09;49.91
47154;BME280;32907;41.412;2.164;2022-10-23T01:34:45;100477.56;;;25.59;49.64
47154;BME280;32907;41.412;2.164;2022-10-23T01:37:40;100554.25;;;26.11;50.13
47154;BME280;32907;41.412;2.164;2022-10-23T01:40:09;100480.09;;;25.73;50.13
47154;BME280;32907;41.412;2.164;2022-10-23T01:42:42;100533.84;;;26.12;49.88
47154;BME280;32907;41.412;2.164;2022-10-23T01:45:20;100529.16;;;26.13;50.17
47154;BME280;32907;41.412;2.164;2022-10-23T01:47:54;100511.31;;;25.98;50.13
47154;BME280;32907;41.412;2.164;2022-10-23T01:50:26;100501.34;;;25.93;50.58
47154;BME280;32907;41.412;2.164;2022-10-23T01:53:02;100509.19;;;26.04;50.65
47154;BME280;32907;41.412;2.164;2022-10-23T01:55:31;100526.28;;;26.09;50.51
47154;BME280;32907;41.412;2.164;2022-10-23T01:58:03;100524.16;;;26.15;50.65
47154;BME280;32907;41.412;2.164;2022-10-23T02:00:39;100536.28;;;26.14;50.11
47154;BME280;32907;41.412;2.164;2022-10-23T02:03:09;100530.31;;;26.12;49.76
47154;BME280;32907;41.412;2.164;2022-10-23T02:05:38;100516.28;;;26.05;49.66
47154;BME280;32907;41.412;2.164;2022-10-23T02:08:06;100488.72;;;25.92;49.56
47154;BME280;32907;41.412;2.164;2022-10-23T02:10:41;100527.09;;;26.10;49.32
47154;BME280;32907;41.412;2.164;2022-10-23T02:22:03;100521.19;;;25.99;49.32
47154;BME280;32907;41.412;2.164;2022-10-23T02:24:37;100501.38;;;25.85;48.87
47154;BME280;32907;41.412;2.164;2022-10-23T02:27:14;100488.78;;;25.84;49.17
47154;BME280;32907;41.412;2.164;2022-10-23T02:29:54;100515.34;;;26.01;49.54
47154;BME280;32907;41.412;2.164;2022-10-23T02:32:26;100430.25;;;25.54;49.15
47154;BME280;32907;41.412;2.164;2022-10-23T02:34:54;100466.84;;;25.66;49.33
47154;BME280;32907;41.412;2.164;2022-10-23T02:37:22;100466.53;;;25.68;49.07
47154;BME280;32907;41.412;2.164;2022-10-23T02:39:53;100512.09;;;26.07;49.52
47154;BME280;32907;41.412;2.164;2022-10-23T02:42:28;100497.53;;;26.07;49.78
47154;BME280;32907;41.412;2.164;2022-10-23T02:47:42;100481.06;;;26.07;49.86
47154;BME280;32907;41.412;2.164;2022-10-23T02:53:20;100513.69;;;26.08;50.12
47154;BME280;32907;41.412;2.164;2022-10-23T03:02:01;100488.56;;;25.89;50.59
47154;BME280;32907;41.412;2.164;2022-10-23T03:04:38;100522.59;;;26.05;50.39
47154;BME280;32907;41.412;2.164;2022-10-23T03:07:12;100481.19;;;25.81;50.16
47154;BME280;32907;41.412;2.164;2022-10-23T03:09:42;100469.75;;;25.70;50.30
47154;BME280;32907;41.412;2.164;2022-10-23T03:12:10;100489.59;;;25.84;50.62
47154;BME280;32907;41.412;2.164;2022-10-23T03:14:37;100517.09;;;26.05;50.28
47154;BME280;32907;41.412;2.164;2022-10-23T03:17:05;100482.16;;;25.85;50.35
47154;BME280;32907;41.412;2.164;2022-10-23T03:19:33;100501.78;;;25.96;50.29
47154;BME280;32907;41.412;2.164;2022-10-23T03:22:03;100472.16;;;25.80;50.40
47154;BME280;32907;41.412;2.164;2022-10-23T03:24:30;100497.09;;;25.96;50.36
47154;BME280;32907;41.412;2.164;2022-10-23T03:26:58;100507.06;;;26.09;50.32
47154;BME280;32907;41.412;2.164;2022-10-23T03:29:31;100480.50;;;25.92;50.53
47154;BME280;32907;41.412;2.164;2022-10-23T03:31:58;100456.34;;;25.77;50.12
47154;BME280;32907;41.412;2.164;2022-10-23T03:34:26;100469.50;;;25.92;50.46
47154;BME280;32907;41.412;2.164;2022-10-23T03:36:54;100499.78;;;26.05;50.30
47154;BME280;32907;41.412;2.164;2022-10-23T03:39:21;100491.09;;;26.03;50.57
47154;BME280;32907;41.412;2.164;2022-10-23T03:41:49;100446.28;;;25.81;50.26
47154;BME280;32907;41.412;2.164;2022-10-23T03:44:17;100459.72;;;25.83;50.02
47154;BME280;32907;41.412;2.164;2022-10-23T03:46:45;100478.22;;;25.94;49.73
47154;BME280;32907;41.412;2.164;2022-10-23T03:49:13;100485.59;;;26.03;49.57
47154;BME280;32907;41.412;2.164;2022-10-23T03:51:43;100470.94;;;25.90;49.30
47154;BME280;32907;41.412;2.164;2022-10-23T03:54:13;100490.63;;;26.01;49.61
47154;BME280;32907;41.412;2.164;2022-10-23T03:56:42;100489.81;;;26.00;49.13
47154;BME280;32907;41.412;2.164;2022-10-23T03:59:10;100460.88;;;25.73;48.91
47154;BME280;32907;41.412;2.164;2022-10-23T04:01:38;100500.31;;;25.98;48.68
47154;BME280;32907;41.412;2.164;2022-10-23T04:04:07;100274.66;;;24.31;48.56
47154;BME280;32907;41.412;2.164;2022-10-23T04:06:35;100494.75;;;25.86;48.67
47154;BME280;32907;41.412;2.164;2022-10-23T04:09:04;100504.06;;;25.93;48.64
47154;BME280;32907;41.412;2.164;2022-10-23T04:11:32;100451.56;;;25.57;48.43
47154;BME280;32907;41.412;2.164;2022-10-23T04:14:00;100500.19;;;25.94;48.59
47154;BME280;32907;41.412;2.164;2022-10-23T04:16:28;100504.41;;;25.92;48.75
47154;BME280;32907;41.412;2.164;2022-10-23T04:18:56;100499.44;;;25.85;48.81
47154;BME280;32907;41.412;2.164;2022-10-23T04:21:24;100512.78;;;25.96;48.38
47154;BME280;32907;41.412;2.164;2022-10-23T04:23:51;100469.28;;;25.68;48.71
47154;BME280;32907;41.412;2.164;2022-10-23T04:26:19;100462.19;;;25.58;48.59
47154;BME280;32907;41.412;2.164;2022-10-23T04:28:47;100522.97;;;25.95;48.51
47154;BME280;32907;41.412;2.164;2022-10-23T04:31:15;100483.97;;;25.72;48.48
47154;BME280;32907;41.412;2.164;2022-10-23T04:33:43;100510.38;;;25.94;48.48
47154;BME280;32907;41.412;2.164;2022-10-23T04:36:24;100513.13;;;25.94;48.26
47154;BME280;32907;41.412;2.164;2022-10-23T04:38:52;100478.00;;;25.70;48.38
47154;BME280;32907;41.412;2.164;2022-10-23T04:41:20;100492.84;;;25.78;48.60
47154;BME280;32907;41.412;2.164;2022-10-23T04:43:48;100524.91;;;25.94;48.87
47154;BME280;32907;41.412;2.164;2022-10-23T04:46:17;100522.97;;;25.95;48.58
47154;BME280;32907;41.412;2.164;2022-10-23T04:48:47;100501.22;;;25.81;48.63
47154;BME280;32907;41.412;2.164;2022-10-23T04:51:20;100519.75;;;25.93;48.91
47154;BME280;32907;41.412;2.164;2022-10-23T04:54:03;100503.16;;;25.81;49.11
47154;BME280;32907;41.412;2.164;2022-10-23T04:56:56;100469.81;;;25.61;49.83
47154;BME280;32907;41.412;2.164;2022-10-23T04:59:25;100520.03;;;26.00;51.36
47154;BME280;32907;41.412;2.164;2022-10-23T05:01:53;100514.69;;;26.04;49.81
47154;BME280;32907;41.412;2.164;2022-10-23T05:04:23;100491.03;;;25.82;49.53
47154;BME280;32907;41.412;2.164;2022-10-23T05:07:09;100532.31;;;26.03;49.59
47154;BME280;32907;41.412;2.164;2022-10-23T05:09:47;100486.56;;;25.77;49.66
47154;BME280;32907;41.412;2.164;2022-10-23T05:12:22;100489.31;;;25.77;49.63
47154;BME280;32907;41.412;2.164;2022-10-23T05:14:52;100497.19;;;25.79;49.91
47154;BME280;32907;41.412;2.164;2022-10-23T05:17:34;100525.53;;;26.00;49.55
47154;BME280;32907;41.412;2.164;2022-10-23T05:20:06;100521.50;;;25.98;49.31
47154;BME280;32907;41.412;2.164;2022-10-23T05:22:38;100482.84;;;25.73;49.32
47154;BME280;32907;41.412;2.164;2022-10-23T05:25:11;100537.81;;;26.03;49.73
47154;BME280;32907;41.412;2.164;2022-10-23T05:27:43;100523.81;;;25.87;49.37
47154;BME280;32907;41.412;2.164;2022-10-23T05:30:13;100533.28;;;25.98;49.01
47154;BME280;32907;41.412;2.164;2022-10-23T05:32:42;100513.81;;;25.82;48.83
47154;BME280;32907;41.412;2.164;2022-10-23T05:35:17;100502.56;;;25.75;48.16
47154;BME280;32907;41.412;2.164;2022-10-23T05:37:48;100483.81;;;25.69;48.59
47154;BME280;32907;41.412;2.164;2022-10-23T05:40:20;100529.28;;;25.96;48.34
47154;BME280;32907;41.412;2.164;2022-10-23T05:42:52;100518.00;;;25.88;48.38
47154;BME280;32907;41.412;2.164;2022-10-23T05:45:27;100441.78;;;25.38;47.86
47154;BME280;32907;41.412;2.164;2022-10-23T05:48:33;100446.53;;;25.29;47.89
47154;BME280;32907;41.412;2.164;2022-10-23T05:51:21;100509.16;;;25.74;47.98
47154;BME280;32907;41.412;2.164;2022-10-23T05:53:57;100527.06;;;25.80;48.02
47154;BME280;32907;41.412;2.164;2022-10-23T05:56:49;100517.41;;;25.83;48.19
47154;BME280;32907;41.412;2.164;2022-10-23T05:59:27;100465.44;;;25.60;48.18
47154;BME280;32907;41.412;2.164;2022-10-23T06:02:21;100517.22;;;25.79;48.23
47154;BME280;32907;41.412;2.164;2022-10-23T06:04:55;100534.34;;;25.85;48.39
47154;BME280;32907;41.412;2.164;2022-10-23T06:07:41;100488.22;;;25.61;48.41
47154;BME280;32907;41.412;2.164;2022-10-23T06:10:10;100529.19;;;25.83;48.48
47154;BME280;32907;41.412;2.164;2022-10-23T06:12:44;100493.03;;;25.64;48.67
47154;BME280;32907;41.412;2.164;2022-10-23T06:15:15;100469.06;;;25.44;48.54
47154;BME280;32907;41.412;2.164;2022-10-23T06:18:00;100503.69;;;25.65;48.82
47154;BME280;32907;41.412;2.164;2022-10-23T06:20:29;100534.53;;;25.80;48.94
47154;BME280;32907;41.412;2.164;2022-10-23T06:23:20;100546.94;;;25.86;48.65
47154;BME280;32907;41.412;2.164;2022-10-23T06:26:07;100539.50;;;25.86;48.56
47154;BME280;32907;41.412;2.164;2022-10-23T06:29:02;100538.41;;;25.79;48.90
47154;BME280;32907;41.412;2.164;2022-10-23T06:31:29;100513.06;;;25.73;48.87
47154;BME280;32907;41.412;2.164;2022-10-23T06:33:59;100502.53;;;25.66;48.89
47154;BME280;32907;41.412;2.164;2022-10-23T06:36:28;100528.69;;;25.81;48.61
47154;BME280;32907;41.412;2.164;2022-10-23T06:39:07;100509.03;;;25.62;48.57
47154;BME280;32907;41.412;2.164;2022-10-23T06:41:56;100526.16;;;25.76;48.85
47154;BME280;32907;41.412;2.164;2022-10-23T06:44:52;100559.66;;;25.90;48.77
47154;BME280;32907;41.412;2.164;2022-10-23T06:47:48;100521.94;;;25.70;48.92
47154;BME280;32907;41.412;2.164;2022-10-23T06:50:37;100501.94;;;25.61;48.84
47154;BME280;32907;41.412;2.164;2022-10-23T06:53:11;100544.81;;;25.91;48.57
47154;BME280;32907;41.412;2.164;2022-10-23T06:55:45;100497.72;;;25.63;48.94
47154;BME280;32907;41.412;2.164;2022-10-23T06:58:18;100520.31;;;25.69;50.24
47154;BME280;32907;41.412;2.164;2022-10-23T07:01:04;100563.56;;;25.89;51.02
47154;BME280;32907;41.412;2.164;2022-10-23T07:03:33;100489.25;;;25.39;49.97
47154;BME280;32907;41.412;2.164;2022-10-23T07:06:06;100557.75;;;25.82;49.67
47154;BME280;32907;41.412;2.164;2022-10-23T07:08:35;100571.66;;;25.86;49.96
47154;BME280;32907;41.412;2.164;2022-10-23T07:11:12;100569.59;;;25.74;50.04
47154;BME280;32907;41.412;2.164;2022-10-23T07:13:45;100563.63;;;25.63;50.35
47154;BME280;32907;41.412;2.164;2022-10-23T07:16:19;100576.41;;;25.68;50.25
47154;BME280;32907;41.412;2.164;2022-10-23T07:18:48;100575.41;;;25.64;50.39
47154;BME280;32907;41.412;2.164;2022-10-23T07:21:28;100536.59;;;25.36;50.51
47154;BME280;32907;41.412;2.164;2022-10-23T07:24:13;100580.56;;;25.65;50.73
47154;BME280;32907;41.412;2.164;2022-10-23T07:27:07;100579.13;;;25.68;50.96
47154;BME280;32907;41.412;2.164;2022-10-23T07:29:35;100548.53;;;25.40;51.14
47154;BME280;32907;41.412;2.164;2022-10-23T07:32:03;100582.06;;;25.63;51.33
47154;BME280;32907;41.412;2.164;2022-10-23T07:34:49;100550.09;;;25.50;51.66
47154;BME280;32907;41.412;2.164;2022-10-23T07:37:23;100574.78;;;25.76;51.68
47154;BME280;32907;41.412;2.164;2022-10-23T07:39:51;100533.63;;;25.50;51.96
47154;BME280;32907;41.412;2.164;2022-10-23T07:42:19;100564.63;;;25.59;52.31
47154;BME280;32907;41.412;2.164;2022-10-23T07:44:48;100531.41;;;25.34;53.03
47154;BME280;32907;41.412;2.164;2022-10-23T07:47:15;100531.41;;;25.34;53.20
47154;BME280;32907;41.412;2.164;2022-10-23T07:49:47;100527.88;;;25.25;53.27
47154;BME280;32907;41.412;2.164;2022-10-23T07:52:16;100574.50;;;25.51;54.00
47154;BME280;32907;41.412;2.164;2022-10-23T07:55:08;100589.19;;;25.55;53.64
47154;BME280;32907;41.412;2.164;2022-10-23T07:57:39;100583.19;;;25.62;54.10
47154;BME280;32907;41.412;2.164;2022-10-23T08:00:17;100557.03;;;25.56;53.66
47154;BME280;32907;41.412;2.164;2022-10-23T08:02:55;100582.00;;;25.80;53.49
47154;BME280;32907;41.412;2.164;2022-10-23T08:05:23;100495.25;;;25.32;53.67
47154;BME280;32907;41.412;2.164;2022-10-23T08:07:56;100553.28;;;25.69;53.53
47154;BME280;32907;41.412;2.164;2022-10-23T08:10:24;100604.94;;;25.93;53.11
47154;BME280;32907;41.412;2.164;2022-10-23T08:12:52;100587.81;;;25.87;52.95
47154;BME280;32907;41.412;2.164;2022-10-23T08:15:27;100592.78;;;25.94;53.12
47154;BME280;32907;41.412;2.164;2022-10-23T08:18:02;100579.75;;;25.82;52.62
47154;BME280;32907;41.412;2.164;2022-10-23T08:20:45;100600.38;;;25.97;52.61
47154;BME280;32907;41.412;2.164;2022-10-23T08:23:16;100592.63;;;25.99;52.27
47154;BME280;32907;41.412;2.164;2022-10-23T08:25:45;100591.16;;;26.02;52.23
47154;BME280;32907;41.412;2.164;2022-10-23T08:28:20;100511.31;;;25.60;52.42
47154;BME280;32907;41.412;2.164;2022-10-23T08:30:55;100598.06;;;26.08;52.19
47154;BME280;32907;41.412;2.164;2022-10-23T08:33:23;100590.31;;;26.10;52.21
47154;BME280;32907;41.412;2.164;2022-10-23T08:35:52;100569.16;;;26.02;52.13
47154;BME280;32907;41.412;2.164;2022-10-23T08:38:28;100552.38;;;25.94;52.07
47154;BME280;32907;41.412;2.164;2022-10-23T08:40:57;100485.50;;;25.52;52.51
47154;BME280;32907;41.412;2.164;2022-10-23T08:43:53;100591.53;;;26.21;52.47
47154;BME280;32907;41.412;2.164;2022-10-23T08:46:39;100594.78;;;26.23;52.24
47154;BME280;32907;41.412;2.164;2022-10-23T08:50:29;100618.38;;;26.24;52.43
47154;BME280;32907;41.412;2.164;2022-10-23T08:55:22;100591.91;;;26.11;51.73
47154;BME280;32907;41.412;2.164;2022-10-23T08:58:00;100559.53;;;25.87;51.43
47154;BME280;32907;41.412;2.164;2022-10-23T09:00:30;100555.50;;;25.84;51.83
47154;BME280;32907;41.412;2.164;2022-10-23T09:03:02;100592.19;;;26.18;51.74
47154;BME280;32907;41.412;2.164;2022-10-23T09:11:15;100525.00;;;25.77;51.60
47154;BME280;32907;41.412;2.164;2022-10-23T09:16:48;100642.38;;;26.36;52.09
47154;BME280;32907;41.412;2.164;2022-10-23T09:19:23;100592.88;;;26.06;51.71
47154;BME280;32907;41.412;2.164;2022-10-23T09:21:54;100626.56;;;26.33;51.59
47154;BME280;32907;41.412;2.164;2022-10-23T09:24:25;100579.97;;;26.07;51.83
47154;BME280;32907;41.412;2.164;2022-10-23T09:26:53;100614.16;;;26.27;51.47
47154;BME280;32907;41.412;2.164;2022-10-23T09:29:27;100621.88;;;26.33;50.61
47154;BME280;32907;41.412;2.164;2022-10-23T09:31:58;100630.75;;;26.39;51.34
47154;BME280;32907;41.412;2.164;2022-10-23T09:34:28;100643.38;;;26.40;51.03
47154;BME280;32907;41.412;2.164;2022-10-23T09:37:03;100618.66;;;26.31;51.05
47154;BME280;32907;41.412;2.164;2022-10-23T09:39:33;100612.06;;;26.24;51.09
47154;BME280;32907;41.412;2.164;2022-10-23T09:42:20;100604.94;;;26.22;50.30
47154;BME280;32907;41.412;2.164;2022-10-23T09:44:51;100624.44;;;26.38;50.90
47154;BME280;32907;41.412;2.164;2022-10-23T09:47:23;100619.44;;;26.40;51.00
47154;BME280;32907;41.412;2.164;2022-10-23T09:49:53;100577.03;;;26.12;51.58
47154;BME280;32907;41.412;2.164;2022-10-23T09:52:35;100572.38;;;26.04;51.80
47154;BME280;32907;41.412;2.164;2022-10-23T09:55:18;100615.13;;;26.22;52.08
47154;BME280;32907;41.412;2.164;2022-10-23T09:57:46;100611.16;;;26.11;51.38
47154;BME280;32907;41.412;2.164;2022-10-23T10:00:18;100651.63;;;26.40;51.51
47154;BME280;32907;41.412;2.164;2022-10-23T10:03:00;100572.84;;;26.06;51.91
47154;BME280;32907;41.412;2.164;2022-10-23T10:05:42;100598.38;;;26.15;51.78
47154;BME280;32907;41.412;2.164;2022-10-23T10:08:38;100654.16;;;26.45;52.20
47154;BME280;32907;41.412;2.164;2022-10-23T10:16:54;100659.50;;;26.50;52.09
47154;BME280;32907;41.412;2.164;2022-10-23T10:22:21;100621.19;;;26.36;52.13
47154;BME280;32907;41.412;2.164;2022-10-23T10:25:00;100665.13;;;26.54;52.03
47154;BME280;32907;41.412;2.164;2022-10-23T10:30:19;100632.66;;;26.47;52.54
47154;BME280;32907;41.412;2.164;2022-10-23T10:33:08;100633.41;;;26.56;52.80
47154;BME280;32907;41.412;2.164;2022-10-23T10:36:27;100659.78;;;26.57;52.39
47154;BME280;32907;41.412;2.164;2022-10-23T10:38:50;100596.38;;;26.24;52.33
47154;BME280;32907;41.412;2.164;2022-10-23T10:47:00;100646.03;;;26.57;52.88
47154;BME280;32907;41.412;2.164;2022-10-23T10:49:48;100642.47;;;26.57;53.29
47154;BME280;32907;41.412;2.164;2022-10-23T10:52:47;100634.88;;;26.54;53.35
47154;BME280;32907;41.412;2.164;2022-10-23T10:55:40;100636.00;;;26.53;53.69
47154;BME280;32907;41.412;2.164;2022-10-23T11:01:02;100634.56;;;26.55;52.89
47154;BME280;32907;41.412;2.164;2022-10-23T11:03:41;100571.69;;;26.15;53.28
47154;BME280;32907;41.412;2.164;2022-10-23T11:06:15;100648.09;;;26.60;53.08
47154;BME280;32907;41.412;2.164;2022-10-23T11:08:45;100628.63;;;26.44;52.96
47154;BME280;32907;41.412;2.164;2022-10-23T11:11:32;100647.31;;;26.60;53.14
47154;BME280;32907;41.412;2.164;2022-10-23T11:14:01;100580.53;;;26.21;53.36
47154;BME280;32907;41.412;2.164;2022-10-23T11:16:35;100570.06;;;26.14;53.21
47154;BME280;32907;41.412;2.164;2022-10-23T11:19:18;100637.44;;;26.59;53.80
47154;BME280;32907;41.412;2.164;2022-10-23T11:22:11;100620.03;;;26.46;54.01
47154;BME280;32907;41.412;2.164;2022-10-23T11:27:47;100565.06;;;26.16;53.95
47154;BME280;32907;41.412;2.164;2022-10-23T11:30:22;100598.72;;;26.43;53.74
47154;BME280;32907;41.412;2.164;2022-10-23T11:38:30;100639.78;;;26.69;54.24
47154;BME280;32907;41.412;2.164;2022-10-23T11:41:05;100598.84;;;26.46;53.88
47154;BME280;32907;41.412;2.164;2022-10-23T11:43:51;100621.13;;;26.54;53.99
47154;BME280;32907;41.412;2.164;2022-10-23T11:48:48;100570.50;;;26.25;54.31
47154;BME280;32907;41.412;2.164;2022-10-23T11:51:36;100613.63;;;26.63;54.27
47154;BME280;32907;41.412;2.164;2022-10-23T11:59:31;100605.06;;;26.64;54.15
47154;BME280;32907;41.412;2.164;2022-10-23T12:02:02;100545.28;;;26.23;54.17
47154;BME280;32907;41.412;2.164;2022-10-23T12:04:45;100548.75;;;26.41;54.37
47154;BME280;32907;41.412;2.164;2022-10-23T12:07:28;100570.00;;;26.53;54.00
47154;BME280;32907;41.412;2.164;2022-10-23T12:09:59;100595.03;;;26.60;54.15
47154;BME280;32907;41.412;2.164;2022-10-23T12:17:42;100443.06;;;25.79;53.83
47154;BME280;32907;41.412;2.164;2022-10-23T12:39:02;100485.41;;;26.29;54.11
47154;BME280;32907;41.412;2.164;2022-10-23T12:41:32;100495.72;;;26.40;54.17
47154;BME280;32907;41.412;2.164;2022-10-23T12:44:02;100501.16;;;26.49;54.05
47154;BME280;32907;41.412;2.164;2022-10-23T12:46:41;100514.59;;;26.63;54.18
47154;BME280;32907;41.412;2.164;2022-10-23T12:49:19;100506.91;;;26.56;53.92
47154;BME280;32907;41.412;2.164;2022-10-23T12:52:02;100500.84;;;26.63;54.19
47154;BME280;32907;41.412;2.164;2022-10-23T12:54:32;100474.38;;;26.58;53.64
47154;BME280;32907;41.412;2.164;2022-10-23T12:57:26;100502.06;;;26.74;54.19
47154;BME280;32907;41.412;2.164;2022-10-23T12:59:57;100495.88;;;26.77;53.96
47154;BME280;32907;41.412;2.164;2022-10-23T13:02:29;100491.97;;;26.78;54.13
47154;BME280;32907;41.412;2.164;2022-10-23T13:05:02;100496.38;;;26.79;53.51
47154;BME280;32907;41.412;2.164;2022-10-23T13:07:35;100457.53;;;26.60;53.90
47154;BME280;32907;41.412;2.164;2022-10-23T13:10:05;100431.47;;;26.45;54.08
47154;BME280;32907;41.412;2.164;2022-10-23T13:12:37;100469.25;;;26.69;53.63
47154;BME280;32907;41.412;2.164;2022-10-23T13:17:42;100451.84;;;26.65;53.77
47154;BME280;32907;41.412;2.164;2022-10-23T13:20:32;100426.38;;;26.56;53.72
47154;BME280;32907;41.412;2.164;2022-10-23T13:26:04;100462.31;;;26.84;53.43
47154;BME280;32907;41.412;2.164;2022-10-23T13:28:43;100444.75;;;26.76;52.99
47154;BME280;32907;41.412;2.164;2022-10-23T13:33:50;100438.09;;;26.77;53.75
47154;BME280;32907;41.412;2.164;2022-10-23T13:36:22;100408.88;;;26.72;54.12
47154;BME280;32907;41.412;2.164;2022-10-23T13:39:12;100432.09;;;26.96;53.83
47154;BME280;32907;41.412;2.164;2022-10-23T13:41:46;100432.66;;;27.01;53.53
47154;BME280;32907;41.412;2.164;2022-10-23T13:44:19;100422.97;;;27.04;52.24
47154;BME280;32907;41.412;2.164;2022-10-23T13:46:49;100396.09;;;26.89;52.39
47154;BME280;32907;41.412;2.164;2022-10-23T13:49:18;100357.97;;;26.66;51.49
47154;BME280;32907;41.412;2.164;2022-10-23T13:51:53;100395.28;;;26.88;51.06
47154;BME280;32907;41.412;2.164;2022-10-23T13:54:24;100381.03;;;26.74;51.03
47154;BME280;32907;41.412;2.164;2022-10-23T13:56:53;100407.66;;;26.94;51.60
47154;BME280;32907;41.412;2.164;2022-10-23T13:59:21;100397.09;;;26.84;52.17
47154;BME280;32907;41.412;2.164;2022-10-23T14:01:50;100418.91;;;27.01;52.54
47154;BME280;32907;41.412;2.164;2022-10-23T14:04:18;100399.19;;;26.99;52.53
47154;BME280;32907;41.412;2.164;2022-10-23T14:06:46;100405.75;;;27.07;51.78
47154;BME280;32907;41.412;2.164;2022-10-23T14:09:16;100400.72;;;27.09;51.53
47154;BME280;32907;41.412;2.164;2022-10-23T14:11:44;100364.53;;;26.86;51.52
47154;BME280;32907;41.412;2.164;2022-10-23T14:14:12;100408.16;;;27.09;51.72
47154;BME280;32907;41.412;2.164;2022-10-23T14:16:40;100395.75;;;27.02;52.27
47154;BME280;32907;41.412;2.164;2022-10-23T14:19:09;100412.06;;;27.08;52.12
47154;BME280;32907;41.412;2.164;2022-10-23T14:21:37;100407.72;;;27.07;51.71
47154;BME280;32907;41.412;2.164;2022-10-23T14:24:05;100408.88;;;27.06;52.08
47154;BME280;32907;41.412;2.164;2022-10-23T14:26:33;100340.22;;;26.64;52.38
47154;BME280;32907;41.412;2.164;2022-10-23T14:29:01;100372.69;;;26.83;51.87
47154;BME280;32907;41.412;2.164;2022-10-23T14:31:36;100292.91;;;26.37;51.84
47154;BME280;32907;41.412;2.164;2022-10-23T14:34:04;100398.03;;;27.00;51.33
47154;BME280;32907;41.412;2.164;2022-10-23T14:36:31;100297.47;;;26.33;51.25
47154;BME280;32907;41.412;2.164;2022-10-23T14:39:16;100367.28;;;26.74;51.70
47154;BME280;32907;41.412;2.164;2022-10-23T14:41:44;100351.31;;;26.67;51.78
47154;BME280;32907;41.412;2.164;2022-10-23T14:44:15;100396.66;;;26.94;52.21
47154;BME280;32907;41.412;2.164;2022-10-23T14:46:43;100404.09;;;26.94;52.23
47154;BME280;32907;41.412;2.164;2022-10-23T14:49:11;100399.75;;;26.93;52.23
47154;BME280;32907;41.412;2.164;2022-10-23T14:51:38;100305.72;;;26.33;52.56
47154;BME280;32907;41.412;2.164;2022-10-23T14:54:06;100356.72;;;26.64;52.91
47154;BME280;32907;41.412;2.164;2022-10-23T14:56:36;100399.06;;;26.96;52.48
47154;BME280;32907;41.412;2.164;2022-10-23T14:59:06;100377.84;;;26.84;52.50
47154;BME280;32907;41.412;2.164;2022-10-23T15:01:37;100347.88;;;26.70;52.73
47154;BME280;32907;41.412;2.164;2022-10-23T15:04:12;100336.19;;;26.61;52.18
47154;BME280;32907;41.412;2.164;2022-10-23T15:06:41;100404.69;;;26.99;53.28
47154;BME280;32907;41.412;2.164;2022-10-23T15:09:12;100342.47;;;26.62;53.14
47154;BME280;32907;41.412;2.164;2022-10-23T15:11:40;100407.25;;;27.04;53.49
47154;BME280;32907;41.412;2.164;2022-10-23T15:14:08;100362.69;;;26.78;53.50
47154;BME280;32907;41.412;2.164;2022-10-23T15:16:36;100413.31;;;27.10;53.54
47154;BME280;32907;41.412;2.164;2022-10-23T15:19:09;100417.38;;;27.13;53.14
47154;BME280;32907;41.412;2.164;2022-10-23T15:21:45;100406.91;;;27.06;52.45
47154;BME280;32907;41.412;2.164;2022-10-23T15:24:15;100416.56;;;27.12;52.59